Alma, MI

7:26 PM EDT on July 19, 2019 (GMT -0400)
Gratiot Community

Weather History for KAMN - May, 2019

Change the Weather History Date:

Tuesday, May 7, 2019

  Actual Average Record
Temperature  
Mean Temperature 50 °F -  
Max Temperature 58 °F 67 °F 85 °F (1965)
Min Temperature 43 °F 40 °F 24 °F (1989)
Degree Days  
Heating Degree Days 14    
Moisture  
Dew Point 35 °F    
Average Humidity 60    
Maximum Humidity 88    
Minimum Humidity 37    
Precipitation  
Precipitation 0.00 in - - ()
Sea Level Pressure  
Sea Level Pressure 30.25 in    
Wind  
Wind Speed 5 mph (NE)    
Max Wind Speed 10 mph    
Max Gust Speed -    
Visibility 9 miles    
Events Rain    
Averages and records for this station are not official NWS values.
T = Trace of Precipitation, MM = Missing Value Source: NWS Daily Summary

Daily Weather History Graph

Daily Weather History Graph

Search for Another Location

Airport or City:

Astronomy

May. 07, 2019 Rise Set
Actual Time 6:24 AM EDT 8:47 PM EDT
Civil Twilight 5:52 AM EDT 9:19 PM EDT
Nautical Twilight 5:12 AM EDT 9:58 PM EDT
Astronomical Twilight 4:28 AM EDT 10:43 PM EDT
Moon 8:27 AM EDT (5/7) 11:49 PM EDT (5/7)
Length of Visible Light 15h 26m
Length of Day
14h 22m
Waxing Crescent, 8% of the Moon is Illuminated
May 7
Waxing Crescent
May 11
First Quarter
May 18
Full
May 26
Last Quarter
Jun 3
New

Hourly Weather History & Observations

Time (EDT) Temp. Windchill Dew Point Humidity Pressure Visibility Wind Dir Wind Speed Gust Speed Precip Events Conditions
12:15 AM 49.1 °F - 41.2 °F 74% 30.14 in 10.0 mi NNE 3.5 mph - N/A   Overcast
12:35 AM 48.7 °F - 41.4 °F 76% 30.14 in 10.0 mi NNE 5.8 mph - N/A   Overcast
12:55 AM 48.6 °F - 41.5 °F 77% 30.15 in 10.0 mi NNE 6.9 mph - N/A   Overcast
1:15 AM 48.4 °F - 41.9 °F 78% 30.15 in 10.0 mi NNE 5.8 mph - N/A   Scattered Clouds
1:16 AM 48.4 °F - 41.9 °F 78% 30.15 in 10.0 mi NNE 6.9 mph - N/A   Scattered Clouds
1:35 AM 48.2 °F - 42.1 °F 79% 30.16 in 10.0 mi NNE 5.8 mph - N/A   Scattered Clouds
1:36 AM 48.2 °F - 42.1 °F 79% 30.16 in 10.0 mi NNE 5.8 mph - N/A   Scattered Clouds
1:55 AM 48.2 °F - 42.4 °F 80% 30.16 in 10.0 mi NNE 6.9 mph - N/A   Overcast
1:56 AM 48.2 °F - 42.4 °F 80% 30.16 in 10.0 mi NNE 5.8 mph - N/A   Overcast
2:15 AM 48.2 °F - 42.8 °F 82% 30.16 in 10.0 mi NE 5.8 mph - N/A Rain Light Rain
2:35 AM 47.7 °F - 41.7 °F 80% 30.15 in 10.0 mi NE 6.9 mph - N/A   Overcast
2:36 AM 47.7 °F - 41.5 °F 79% 30.15 in 10.0 mi NE 6.9 mph - N/A   Overcast
2:55 AM 47.5 °F - 41.4 °F 79% 30.15 in 10.0 mi NE 6.9 mph - N/A   Unknown
2:56 AM 47.5 °F - 41.4 °F 79% 30.15 in 10.0 mi NE 6.9 mph - N/A   Unknown
3:15 AM 47.5 °F - 41.4 °F 79% 30.16 in 10.0 mi NE 4.6 mph - N/A   Overcast
3:35 AM 47.3 °F - 41.9 °F 82% 30.17 in 10.0 mi ENE 6.9 mph - N/A Rain Light Rain
3:36 AM 47.3 °F - 41.9 °F 82% 30.17 in 10.0 mi ENE 6.9 mph - N/A Rain Light Rain
3:55 AM 47.1 °F - 42.3 °F 83% 30.17 in 10.0 mi NNE 5.8 mph - N/A   Unknown
3:56 AM 47.1 °F - 42.3 °F 83% 30.17 in 10.0 mi NNE 6.9 mph - N/A   Unknown
4:15 AM 46.9 °F - 42.8 °F 86% 30.17 in 10.0 mi ENE 6.9 mph - N/A Rain Light Rain
4:35 AM 46.6 °F - 42.8 °F 87% 30.17 in 10.0 mi ENE 8.1 mph - N/A Rain Rain
4:36 AM 46.6 °F - 42.8 °F 87% 30.18 in 10.0 mi ENE 8.1 mph - N/A Rain Rain
4:55 AM 46.4 °F 42.4 °F 43.0 °F 88% 30.18 in 10.0 mi NE 8.1 mph - N/A Rain Light Rain
5:15 AM 45.7 °F 41.5 °F 41.7 °F 86% 30.19 in 10.0 mi NNE 8.1 mph - N/A Rain Light Rain
5:35 AM 45.5 °F 41.3 °F 41.0 °F 84% 30.20 in 10.0 mi NE 8.1 mph - N/A Rain Light Rain
5:55 AM 45.0 °F 40.6 °F 40.5 °F 84% 30.21 in 10.0 mi NNE 8.1 mph - N/A Rain Light Rain
6:15 AM 43.7 °F 39.7 °F 36.1 °F 75% 30.22 in 10.0 mi NNE 6.9 mph - N/A   Overcast
6:16 AM 43.7 °F 39.7 °F 35.8 °F 74% 30.22 in 10.0 mi NNE 6.9 mph - N/A   Overcast
6:35 AM 43.3 °F 39.9 °F 34.5 °F 71% 30.23 in 10.0 mi NNE 5.8 mph - N/A   Overcast
6:36 AM 43.3 °F 39.2 °F 34.3 °F 71% 30.23 in 10.0 mi NNE 6.9 mph - N/A   Overcast
6:55 AM 43.3 °F 39.2 °F 33.6 °F 69% 30.23 in 10.0 mi North 6.9 mph - N/A   Overcast
6:56 AM 43.3 °F 38.6 °F 33.6 °F 69% 30.22 in 10.0 mi NNE 8.1 mph - N/A   Overcast
7:15 AM 43.2 °F 39.7 °F 32.2 °F 65% 30.23 in 10.0 mi NNE 5.8 mph - N/A   Overcast
7:16 AM 43.2 °F 40.5 °F 32.0 °F 65% 30.24 in 10.0 mi NNE 4.6 mph - N/A   Overcast
7:35 AM 43.7 °F 42.1 °F 32.4 °F 64% 30.24 in 10.0 mi NE 3.5 mph - N/A   Overcast
7:55 AM 43.7 °F 41.1 °F 32.0 °F 63% 30.25 in 10.0 mi NE 4.6 mph - N/A   Overcast
8:15 AM 43.7 °F 39.7 °F 30.9 °F 61% 30.27 in 10.0 mi North 6.9 mph - N/A   Overcast
8:35 AM 43.7 °F 40.3 °F 30.4 °F 59% 30.26 in 10.0 mi NNE 5.8 mph - N/A   Overcast
8:55 AM 44.1 °F - 31.5 °F 61% 30.26 in 10.0 mi Calm Calm - N/A   Overcast
8:56 AM 44.1 °F 42.5 °F 31.5 °F 61% 30.26 in 10.0 mi NNE 3.5 mph - N/A   Overcast
9:15 AM 44.8 °F 41.0 °F 31.6 °F 60% 30.26 in 10.0 mi NNE 6.9 mph - N/A   Overcast
9:16 AM 44.8 °F 41.0 °F 31.6 °F 60% 30.26 in 10.0 mi NNE 6.9 mph - N/A   Overcast
9:35 AM 45.0 °F 41.8 °F 29.7 °F 55% 30.26 in 10.0 mi NE 5.8 mph - N/A   Overcast
9:55 AM 45.9 °F 42.9 °F 30.6 °F 55% 30.27 in 10.0 mi NE 5.8 mph - N/A   Overcast
9:56 AM 45.9 °F 43.6 °F 30.6 °F 55% 30.28 in 10.0 mi NE 4.6 mph - N/A   Overcast
10:15 AM 46.6 °F - 31.5 °F 56% 30.28 in 10.0 mi NE 5.8 mph - N/A   Overcast
10:35 AM 46.8 °F - 31.5 °F 55% 30.29 in 10.0 mi NNE 3.5 mph - N/A   Overcast
10:36 AM 46.9 °F - 31.6 °F 55% 30.29 in 10.0 mi North 4.6 mph - N/A   Overcast
10:55 AM 47.5 °F - 31.8 °F 55% 30.28 in 10.0 mi NNE 3.5 mph - N/A   Overcast
10:56 AM 47.5 °F - 32.0 °F 55% 30.28 in 10.0 mi North 3.5 mph - N/A   Overcast
11:15 AM 48.2 °F - 31.3 °F 52% 30.30 in 10.0 mi Calm Calm - N/A   Overcast
11:35 AM 49.5 °F - 31.8 °F 51% 30.30 in 10.0 mi ENE 3.5 mph - N/A   Overcast
11:55 AM 50.2 °F - 31.6 °F 49% 30.30 in 10.0 mi Calm Calm - N/A   Overcast
12:15 PM 50.7 °F - 30.9 °F 47% 30.30 in 10.0 mi Calm Calm - N/A   Overcast
12:35 PM 51.4 °F - 32.4 °F 48% 30.30 in 10.0 mi ENE 3.5 mph - N/A   Overcast
12:36 PM 51.6 °F - 32.2 °F 47% 30.30 in 10.0 mi ENE 3.5 mph - N/A   Overcast
12:55 PM 52.7 °F - 33.3 °F 48% 30.30 in 10.0 mi ENE 5.8 mph - N/A   Scattered Clouds
12:56 PM 52.9 °F - 33.3 °F 47% 30.30 in 10.0 mi ENE 6.9 mph - N/A   Scattered Clouds
1:15 PM 53.2 °F - 33.1 °F 46% 30.30 in 10.0 mi East 3.5 mph - N/A   Scattered Clouds
1:16 PM 53.2 °F - 33.3 °F 47% 30.30 in 10.0 mi ENE 3.5 mph - N/A   Scattered Clouds
1:35 PM 54.5 °F - 34.5 °F 47% 30.30 in 10.0 mi ENE 8.1 mph - N/A   Clear
1:36 PM 54.5 °F - 34.5 °F 47% 30.30 in 10.0 mi East 5.8 mph - N/A   Clear
1:55 PM 54.5 °F - 33.1 °F 44% 30.29 in 10.0 mi Calm Calm - N/A   Clear
1:56 PM 54.3 °F - 32.7 °F 44% 30.29 in 10.0 mi East 3.5 mph - N/A   Clear
2:15 PM 55.0 °F - 33.6 °F 44% 30.29 in 5.0 mi East 3.5 mph - N/A   Haze
2:35 PM 55.9 °F - 33.1 °F 42% 30.29 in 7.0 mi Calm Calm - N/A   Clear
2:55 PM 56.7 °F - 33.3 °F 41% 30.29 in 10.0 mi ENE 4.6 mph - N/A   Clear
3:15 PM 56.8 °F - 31.5 °F 38% 30.28 in 10.0 mi Calm Calm - N/A   Scattered Clouds
3:16 PM 56.8 °F - 31.6 °F 38% 30.28 in 10.0 mi Calm Calm - N/A   Scattered Clouds
3:35 PM 57.7 °F - 33.1 °F 39% 30.28 in 10.0 mi North 4.6 mph - N/A   Clear
3:36 PM 57.7 °F - 33.4 °F 40% 30.28 in 10.0 mi NNE 5.8 mph - N/A   Clear
3:55 PM 57.7 °F - 32.0 °F 38% 30.28 in 10.0 mi Calm Calm - N/A   Clear
4:15 PM 58.1 °F - 33.3 °F 39% 30.28 in 10.0 mi Calm Calm - N/A   Clear
4:16 PM 58.1 °F - 33.6 °F 40% 30.28 in 10.0 mi East 4.6 mph - N/A   Clear
4:35 PM 58.5 °F - 32.4 °F 37% 30.28 in 7.0 mi ENE 3.5 mph - N/A   Clear
4:36 PM 58.3 °F - 32.2 °F 37% 30.28 in 10.0 mi Calm Calm - N/A   Clear
4:55 PM 58.1 °F - 32.9 °F 39% 30.28 in 10.0 mi NNE 5.8 mph - N/A   Clear
5:15 PM 58.3 °F - 33.6 °F 39% 30.27 in 10.0 mi ENE 3.5 mph - N/A   Clear
5:16 PM 58.1 °F - 33.8 °F 40% 30.27 in 10.0 mi ENE 6.9 mph - N/A   Clear
5:35 PM 57.9 °F - 33.8 °F 40% 30.27 in 10.0 mi Calm Calm - N/A   Clear
5:55 PM 58.1 °F - 34.9 °F 42% 30.27 in 10.0 mi East 5.8 mph - N/A   Clear
6:15 PM 57.6 °F - 37.2 °F 47% 30.27 in 4.0 mi East 9.2 mph - N/A   Haze
6:35 PM 56.5 °F - 35.8 °F 46% 30.27 in 7.0 mi ENE 9.2 mph - N/A   Clear
6:55 PM 55.8 °F - 35.2 °F 46% 30.26 in 4.0 mi East 9.2 mph - N/A   Haze
6:56 PM 55.8 °F - 35.1 °F 46% 30.26 in 5.0 mi East 9.2 mph - N/A   Haze
7:15 PM 56.1 °F - 33.6 °F 43% 30.26 in 4.0 mi East 10.4 mph - N/A   Haze
7:16 PM 55.9 °F - 33.6 °F 43% 30.27 in 4.0 mi East 10.4 mph - N/A   Haze
7:35 PM 55.0 °F - 32.7 °F 43% 30.27 in 5.0 mi East 10.4 mph - N/A   Haze
7:55 PM 53.6 °F - 31.6 °F 43% 30.27 in 5.0 mi East 6.9 mph - N/A   Haze
8:15 PM 52.7 °F - 29.3 °F 41% 30.27 in 1.8 mi ESE 5.8 mph - N/A   Haze
8:35 PM 51.6 °F - 29.7 °F 43% 30.28 in 1.5 mi East 4.6 mph - N/A   Haze
8:55 PM 50.2 °F - 31.5 °F 49% 30.28 in 2.5 mi East 4.6 mph - N/A   Haze
9:15 PM 48.0 °F - 34.7 °F 60% 30.28 in 7.0 mi East 5.8 mph - N/A   Clear
9:35 PM 47.5 °F - 34.0 °F 59% 30.28 in 4.0 mi East 4.6 mph - N/A   Haze
9:55 PM 47.1 °F - 32.4 °F 57% 30.29 in 3.0 mi East 3.5 mph - N/A   Haze
9:56 PM 46.9 °F - 32.5 °F 57% 30.29 in 4.0 mi East 4.6 mph - N/A   Haze
10:15 PM 44.6 °F 41.4 °F 36.7 °F 74% 30.29 in 10.0 mi ENE 5.8 mph - N/A   Clear
10:16 PM 44.6 °F 42.2 °F 36.7 °F 74% 30.29 in 10.0 mi ENE 4.6 mph - N/A   Clear
10:35 PM 43.7 °F 40.3 °F 36.3 °F 75% 30.29 in 5.0 mi ENE 5.8 mph - N/A   Haze
10:36 PM 43.7 °F 40.3 °F 36.3 °F 75% 30.29 in 5.0 mi ENE 5.8 mph - N/A   Haze
10:55 PM 43.7 °F 40.3 °F 36.5 °F 76% 30.29 in 10.0 mi NE 5.8 mph - N/A   Clear
11:15 PM 44.6 °F 41.4 °F 37.0 °F 75% 30.30 in 10.0 mi NE 5.8 mph - N/A   Clear
11:35 PM 44.1 °F 40.1 °F 37.8 °F 78% 30.29 in 10.0 mi NE 6.9 mph - N/A   Clear
11:55 PM 43.7 °F 41.1 °F 37.4 °F 78% 30.31 in 10.0 mi NNE 4.6 mph - N/A   Clear